sensor_id;sensor_type;location;lat;lon;timestamp;pressure;altitude;pressure_sealevel;temperature
72405;BMP280;60395;52.020;113.548;2022-12-01T00:02:10;92546.91;;;-17.25
72405;BMP280;60395;52.020;113.548;2022-12-01T00:05:13;92546.28;;;-17.18
72405;BMP280;60395;52.020;113.548;2022-12-01T00:08:16;92539.59;;;-17.16
72405;BMP280;60395;52.020;113.548;2022-12-01T00:11:21;92549.16;;;-17.14
72405;BMP280;60395;52.020;113.548;2022-12-01T00:14:24;92536.28;;;-17.11
72405;BMP280;60395;52.020;113.548;2022-12-01T00:17:28;92530.09;;;-17.10
72405;BMP280;60395;52.020;113.548;2022-12-01T00:20:33;92534.31;;;-17.05
72405;BMP280;60395;52.020;113.548;2022-12-01T00:23:36;92521.16;;;-16.97
72405;BMP280;60395;52.020;113.548;2022-12-01T00:26:39;92511.81;;;-16.89
72405;BMP280;60395;52.020;113.548;2022-12-01T00:29:42;92512.53;;;-16.81
72405;BMP280;60395;52.020;113.548;2022-12-01T00:32:46;92513.41;;;-16.71
72405;BMP280;60395;52.020;113.548;2022-12-01T00:35:49;92519.13;;;-16.63
72405;BMP280;60395;52.020;113.548;2022-12-01T00:38:53;92504.94;;;-16.53
72405;BMP280;60395;52.020;113.548;2022-12-01T00:41:56;92515.00;;;-16.45
72405;BMP280;60395;52.020;113.548;2022-12-01T00:44:59;92518.03;;;-16.39
72405;BMP280;60395;52.020;113.548;2022-12-01T00:48:02;92516.72;;;-16.32
72405;BMP280;60395;52.020;113.548;2022-12-01T00:51:05;92506.53;;;-16.19
72405;BMP280;60395;52.020;113.548;2022-12-01T00:54:08;92509.72;;;-16.03
72405;BMP280;60395;52.020;113.548;2022-12-01T00:57:12;92498.84;;;-15.98
72405;BMP280;60395;52.020;113.548;2022-12-01T01:00:16;92499.38;;;-15.92
72405;BMP280;60395;52.020;113.548;2022-12-01T01:03:19;92503.88;;;-15.83
72405;BMP280;60395;52.020;113.548;2022-12-01T01:06:22;92500.53;;;-15.78
72405;BMP280;60395;52.020;113.548;2022-12-01T01:09:26;92501.53;;;-15.74
72405;BMP280;60395;52.020;113.548;2022-12-01T01:12:29;92503.56;;;-15.72
72405;BMP280;60395;52.020;113.548;2022-12-01T01:15:32;92496.34;;;-15.68
72405;BMP280;60395;52.020;113.548;2022-12-01T01:18:36;92493.81;;;-15.60
72405;BMP280;60395;52.020;113.548;2022-12-01T01:21:39;92489.13;;;-15.49
72405;BMP280;60395;52.020;113.548;2022-12-01T01:24:42;92485.09;;;-15.44
72405;BMP280;60395;52.020;113.548;2022-12-01T01:27:45;92488.94;;;-15.43
72405;BMP280;60395;52.020;113.548;2022-12-01T01:30:51;92477.72;;;-15.42
72405;BMP280;60395;52.020;113.548;2022-12-01T01:33:55;92474.69;;;-15.41
72405;BMP280;60395;52.020;113.548;2022-12-01T01:36:58;92466.63;;;-15.39
72405;BMP280;60395;52.020;113.548;2022-12-01T01:40:01;92464.97;;;-15.36
72405;BMP280;60395;52.020;113.548;2022-12-01T01:43:14;92452.50;;;-15.34
72405;BMP280;60395;52.020;113.548;2022-12-01T01:46:20;92456.19;;;-15.28
72405;BMP280;60395;52.020;113.548;2022-12-01T01:49:23;92454.53;;;-15.25
72405;BMP280;60395;52.020;113.548;2022-12-01T01:52:27;92457.53;;;-15.19
72405;BMP280;60395;52.020;113.548;2022-12-01T01:55:33;92451.84;;;-15.20
72405;BMP280;60395;52.020;113.548;2022-12-01T01:58:37;92452.81;;;-15.15
72405;BMP280;60395;52.020;113.548;2022-12-01T02:01:41;92450.44;;;-15.05
72405;BMP280;60395;52.020;113.548;2022-12-01T02:04:46;92445.88;;;-14.99
72405;BMP280;60395;52.020;113.548;2022-12-01T02:07:52;92450.53;;;-14.88
72405;BMP280;60395;52.020;113.548;2022-12-01T02:11:22;92444.28;;;-14.80
72405;BMP280;60395;52.020;113.548;2022-12-01T02:14:48;92445.94;;;-14.74
72405;BMP280;60395;52.020;113.548;2022-12-01T02:31:57;92441.84;;;-14.05
72405;BMP280;60395;52.020;113.548;2022-12-01T02:39:07;92451.47;;;-13.86
72405;BMP280;60395;52.020;113.548;2022-12-01T02:42:19;92452.69;;;-13.70
72405;BMP280;60395;52.020;113.548;2022-12-01T02:45:47;92448.53;;;-13.58
72405;BMP280;60395;52.020;113.548;2022-12-01T02:48:54;92448.97;;;-13.52
72405;BMP280;60395;52.020;113.548;2022-12-01T02:51:59;92452.09;;;-13.44
72405;BMP280;60395;52.020;113.548;2022-12-01T02:55:04;92442.25;;;-13.32
72405;BMP280;60395;52.020;113.548;2022-12-01T02:58:14;92446.44;;;-13.17
72405;BMP280;60395;52.020;113.548;2022-12-01T03:04:33;92441.56;;;-12.88
72405;BMP280;60395;52.020;113.548;2022-12-01T03:10:54;92431.88;;;-12.55
72405;BMP280;60395;52.020;113.548;2022-12-01T03:17:44;92415.34;;;-12.29
72405;BMP280;60395;52.020;113.548;2022-12-01T03:24:21;92402.06;;;-12.11
72405;BMP280;60395;52.020;113.548;2022-12-01T03:27:28;92402.22;;;-12.09
72405;BMP280;60395;52.020;113.548;2022-12-01T03:30:36;92397.13;;;-12.18
72405;BMP280;60395;52.020;113.548;2022-12-01T03:33:43;92393.91;;;-12.19
72405;BMP280;60395;52.020;113.548;2022-12-01T03:36:55;92394.59;;;-12.18
72405;BMP280;60395;52.020;113.548;2022-12-01T03:40:01;92386.03;;;-12.32
72405;BMP280;60395;52.020;113.548;2022-12-01T03:43:14;92379.66;;;-12.33
72405;BMP280;60395;52.020;113.548;2022-12-01T03:46:56;92375.00;;;-12.27
72405;BMP280;60395;52.020;113.548;2022-12-01T03:50:02;92369.56;;;-12.14
72405;BMP280;60395;52.020;113.548;2022-12-01T03:53:27;92363.19;;;-12.15
72405;BMP280;60395;52.020;113.548;2022-12-01T03:56:43;92351.44;;;-12.11
72405;BMP280;60395;52.020;113.548;2022-12-01T03:59:48;92352.41;;;-12.16
72405;BMP280;60395;52.020;113.548;2022-12-01T04:02:56;92361.19;;;-12.07
72405;BMP280;60395;52.020;113.548;2022-12-01T04:05:59;92356.91;;;-12.14
72405;BMP280;60395;52.020;113.548;2022-12-01T04:09:03;92351.34;;;-12.03
72405;BMP280;60395;52.020;113.548;2022-12-01T04:12:08;92346.38;;;-12.11
72405;BMP280;60395;52.020;113.548;2022-12-01T04:15:29;92342.53;;;-12.21
72405;BMP280;60395;52.020;113.548;2022-12-01T04:18:33;92336.28;;;-12.20
72405;BMP280;60395;52.020;113.548;2022-12-01T04:21:36;92329.06;;;-12.14
72405;BMP280;60395;52.020;113.548;2022-12-01T04:24:41;92329.19;;;-12.12
72405;BMP280;60395;52.020;113.548;2022-12-01T04:27:44;92315.88;;;-12.13
72405;BMP280;60395;52.020;113.548;2022-12-01T04:30:48;92326.00;;;-12.13
72405;BMP280;60395;52.020;113.548;2022-12-01T04:33:53;92315.63;;;-12.17
72405;BMP280;60395;52.020;113.548;2022-12-01T04:36:57;92303.22;;;-12.13
72405;BMP280;60395;52.020;113.548;2022-12-01T04:40:00;92296.03;;;-12.07
72405;BMP280;60395;52.020;113.548;2022-12-01T04:43:03;92296.44;;;-11.91
72405;BMP280;60395;52.020;113.548;2022-12-01T04:46:07;92288.31;;;-11.99
72405;BMP280;60395;52.020;113.548;2022-12-01T04:49:10;92292.31;;;-11.96
72405;BMP280;60395;52.020;113.548;2022-12-01T04:52:13;92288.47;;;-12.07
72405;BMP280;60395;52.020;113.548;2022-12-01T04:55:16;92287.00;;;-12.00
72405;BMP280;60395;52.020;113.548;2022-12-01T04:58:20;92295.00;;;-11.94
72405;BMP280;60395;52.020;113.548;2022-12-01T05:01:23;92294.44;;;-11.92
72405;BMP280;60395;52.020;113.548;2022-12-01T05:04:26;92288.84;;;-11.91
72405;BMP280;60395;52.020;113.548;2022-12-01T05:07:29;92278.72;;;-11.91
72405;BMP280;60395;52.020;113.548;2022-12-01T05:10:36;92282.19;;;-11.86
72405;BMP280;60395;52.020;113.548;2022-12-01T05:13:42;92275.94;;;-11.95
72405;BMP280;60395;52.020;113.548;2022-12-01T05:16:46;92274.59;;;-12.05
72405;BMP280;60395;52.020;113.548;2022-12-01T05:19:49;92272.06;;;-12.05
72405;BMP280;60395;52.020;113.548;2022-12-01T05:23:10;92269.00;;;-12.04
72405;BMP280;60395;52.020;113.548;2022-12-01T05:26:18;92263.53;;;-12.00
72405;BMP280;60395;52.020;113.548;2022-12-01T05:29:21;92256.47;;;-12.12
72405;BMP280;60395;52.020;113.548;2022-12-01T05:32:24;92248.78;;;-12.23
72405;BMP280;60395;52.020;113.548;2022-12-01T05:35:27;92244.00;;;-12.38
72405;BMP280;60395;52.020;113.548;2022-12-01T05:38:30;92241.19;;;-12.43
72405;BMP280;60395;52.020;113.548;2022-12-01T05:41:34;92245.03;;;-12.42
72405;BMP280;60395;52.020;113.548;2022-12-01T05:44:37;92240.78;;;-12.39
72405;BMP280;60395;52.020;113.548;2022-12-01T05:47:40;92245.16;;;-12.39
72405;BMP280;60395;52.020;113.548;2022-12-01T05:50:43;92232.13;;;-12.36
72405;BMP280;60395;52.020;113.548;2022-12-01T05:53:47;92237.84;;;-12.35
72405;BMP280;60395;52.020;113.548;2022-12-01T05:56:50;92229.19;;;-12.42
72405;BMP280;60395;52.020;113.548;2022-12-01T05:59:53;92231.72;;;-12.42
72405;BMP280;60395;52.020;113.548;2022-12-01T06:02:56;92226.00;;;-12.43
72405;BMP280;60395;52.020;113.548;2022-12-01T06:05:59;92226.66;;;-12.42
72405;BMP280;60395;52.020;113.548;2022-12-01T06:09:02;92207.09;;;-12.42
72405;BMP280;60395;52.020;113.548;2022-12-01T06:12:06;92212.41;;;-12.47
72405;BMP280;60395;52.020;113.548;2022-12-01T06:15:10;92212.03;;;-12.53
72405;BMP280;60395;52.020;113.548;2022-12-01T06:18:13;92202.72;;;-12.51
72405;BMP280;60395;52.020;113.548;2022-12-01T06:21:17;92202.31;;;-12.57
72405;BMP280;60395;52.020;113.548;2022-12-01T06:24:20;92204.16;;;-12.57
72405;BMP280;60395;52.020;113.548;2022-12-01T06:27:23;92193.25;;;-12.50
72405;BMP280;60395;52.020;113.548;2022-12-01T06:30:26;92186.06;;;-12.54
72405;BMP280;60395;52.020;113.548;2022-12-01T06:33:30;92189.25;;;-12.53
72405;BMP280;60395;52.020;113.548;2022-12-01T06:36:33;92182.31;;;-12.53
72405;BMP280;60395;52.020;113.548;2022-12-01T06:39:37;92181.28;;;-12.50
72405;BMP280;60395;52.020;113.548;2022-12-01T06:42:40;92179.00;;;-12.55
72405;BMP280;60395;52.020;113.548;2022-12-01T06:45:43;92175.81;;;-12.56
72405;BMP280;60395;52.020;113.548;2022-12-01T06:48:47;92169.81;;;-12.60
72405;BMP280;60395;52.020;113.548;2022-12-01T06:51:50;92177.69;;;-12.56
72405;BMP280;60395;52.020;113.548;2022-12-01T06:54:53;92165.16;;;-12.54
72405;BMP280;60395;52.020;113.548;2022-12-01T06:58:00;92172.63;;;-12.56
72405;BMP280;60395;52.020;113.548;2022-12-01T07:01:07;92168.38;;;-12.54
72405;BMP280;60395;52.020;113.548;2022-12-01T07:04:11;92155.31;;;-12.60
72405;BMP280;60395;52.020;113.548;2022-12-01T07:07:14;92148.94;;;-12.61
72405;BMP280;60395;52.020;113.548;2022-12-01T07:10:17;92147.88;;;-12.58
72405;BMP280;60395;52.020;113.548;2022-12-01T07:13:20;92148.25;;;-12.61
72405;BMP280;60395;52.020;113.548;2022-12-01T07:16:24;92139.25;;;-12.64
72405;BMP280;60395;52.020;113.548;2022-12-01T07:19:27;92137.75;;;-12.67
72405;BMP280;60395;52.020;113.548;2022-12-01T07:22:30;92130.03;;;-12.69
72405;BMP280;60395;52.020;113.548;2022-12-01T07:25:34;92136.97;;;-12.70
72405;BMP280;60395;52.020;113.548;2022-12-01T07:28:37;92128.06;;;-12.71
72405;BMP280;60395;52.020;113.548;2022-12-01T07:31:40;92117.38;;;-12.69
72405;BMP280;60395;52.020;113.548;2022-12-01T07:34:43;92129.38;;;-12.70
72405;BMP280;60395;52.020;113.548;2022-12-01T07:37:46;92116.09;;;-12.70
72405;BMP280;60395;52.020;113.548;2022-12-01T07:40:49;92113.81;;;-12.76
72405;BMP280;60395;52.020;113.548;2022-12-01T07:43:54;92116.22;;;-12.78
72405;BMP280;60395;52.020;113.548;2022-12-01T07:46:57;92113.69;;;-12.78
72405;BMP280;60395;52.020;113.548;2022-12-01T07:50:00;92115.78;;;-12.75
72405;BMP280;60395;52.020;113.548;2022-12-01T07:53:03;92120.19;;;-12.75
72405;BMP280;60395;52.020;113.548;2022-12-01T07:56:07;92104.63;;;-12.71
72405;BMP280;60395;52.020;113.548;2022-12-01T07:59:10;92106.75;;;-12.68
72405;BMP280;60395;52.020;113.548;2022-12-01T08:02:13;92104.75;;;-12.69
72405;BMP280;60395;52.020;113.548;2022-12-01T08:05:17;92098.53;;;-12.59
72405;BMP280;60395;52.020;113.548;2022-12-01T08:08:20;92104.09;;;-12.60
72405;BMP280;60395;52.020;113.548;2022-12-01T08:11:25;92102.09;;;-12.62
72405;BMP280;60395;52.020;113.548;2022-12-01T08:14:28;92094.00;;;-12.70
72405;BMP280;60395;52.020;113.548;2022-12-01T08:17:31;92094.38;;;-12.73
72405;BMP280;60395;52.020;113.548;2022-12-01T08:20:35;92090.50;;;-12.75
72405;BMP280;60395;52.020;113.548;2022-12-01T08:23:39;92087.84;;;-12.48
72405;BMP280;60395;52.020;113.548;2022-12-01T08:26:43;92091.69;;;-12.37
72405;BMP280;60395;52.020;113.548;2022-12-01T08:29:46;92088.72;;;-12.24
72405;BMP280;60395;52.020;113.548;2022-12-01T08:32:53;92080.16;;;-12.19
72405;BMP280;60395;52.020;113.548;2022-12-01T08:36:00;92078.09;;;-12.32
72405;BMP280;60395;52.020;113.548;2022-12-01T08:39:04;92081.06;;;-12.45
72405;BMP280;60395;52.020;113.548;2022-12-01T08:42:09;92076.41;;;-12.58
72405;BMP280;60395;52.020;113.548;2022-12-01T08:45:12;92077.34;;;-12.63
72405;BMP280;60395;52.020;113.548;2022-12-01T08:48:15;92073.09;;;-12.70
72405;BMP280;60395;52.020;113.548;2022-12-01T08:51:18;92072.16;;;-12.75
72405;BMP280;60395;52.020;113.548;2022-12-01T08:54:21;92072.72;;;-12.77
72405;BMP280;60395;52.020;113.548;2022-12-01T08:57:24;92070.94;;;-12.74
72405;BMP280;60395;52.020;113.548;2022-12-01T09:00:28;92062.72;;;-12.75
72405;BMP280;60395;52.020;113.548;2022-12-01T09:03:31;92067.75;;;-12.75
72405;BMP280;60395;52.020;113.548;2022-12-01T09:06:41;92063.66;;;-12.80
72405;BMP280;60395;52.020;113.548;2022-12-01T09:09:44;92067.91;;;-12.82
72405;BMP280;60395;52.020;113.548;2022-12-01T09:12:48;92071.66;;;-12.83
72405;BMP280;60395;52.020;113.548;2022-12-01T09:15:56;92060.44;;;-12.80
72405;BMP280;60395;52.020;113.548;2022-12-01T09:18:59;92060.06;;;-12.77
72405;BMP280;60395;52.020;113.548;2022-12-01T09:22:02;92054.47;;;-12.75
72405;BMP280;60395;52.020;113.548;2022-12-01T09:25:06;92062.72;;;-12.75
72405;BMP280;60395;52.020;113.548;2022-12-01T09:28:16;92044.91;;;-12.77
72405;BMP280;60395;52.020;113.548;2022-12-01T09:31:20;92046.63;;;-12.79
72405;BMP280;60395;52.020;113.548;2022-12-01T09:34:25;92038.38;;;-12.80
72405;BMP280;60395;52.020;113.548;2022-12-01T09:37:29;92042.47;;;-12.75
72405;BMP280;60395;52.020;113.548;2022-12-01T09:40:37;92045.16;;;-12.72
72405;BMP280;60395;52.020;113.548;2022-12-01T09:43:44;92048.34;;;-12.72
72405;BMP280;60395;52.020;113.548;2022-12-01T09:46:53;92037.81;;;-12.68
72405;BMP280;60395;52.020;113.548;2022-12-01T09:50:15;92036.78;;;-12.65
72405;BMP280;60395;52.020;113.548;2022-12-01T09:53:23;92034.50;;;-12.61
72405;BMP280;60395;52.020;113.548;2022-12-01T09:56:38;92031.84;;;-12.63
72405;BMP280;60395;52.020;113.548;2022-12-01T09:59:43;92031.72;;;-12.65
72405;BMP280;60395;52.020;113.548;2022-12-01T10:02:55;92035.97;;;-12.68
72405;BMP280;60395;52.020;113.548;2022-12-01T10:06:11;92022.94;;;-12.64
72405;BMP280;60395;52.020;113.548;2022-12-01T10:09:40;92027.19;;;-12.67
72405;BMP280;60395;52.020;113.548;2022-12-01T10:12:46;92019.09;;;-12.65
72405;BMP280;60395;52.020;113.548;2022-12-01T10:27:24;92021.72;;;-12.63
72405;BMP280;60395;52.020;113.548;2022-12-01T10:30:28;92009.63;;;-12.65
72405;BMP280;60395;52.020;113.548;2022-12-01T10:33:35;92012.16;;;-12.65
72405;BMP280;60395;52.020;113.548;2022-12-01T10:36:45;92008.97;;;-12.65
72405;BMP280;60395;52.020;113.548;2022-12-01T10:39:51;92005.78;;;-12.66
72405;BMP280;60395;52.020;113.548;2022-12-01T10:42:54;92006.53;;;-12.63
72405;BMP280;60395;52.020;113.548;2022-12-01T10:46:00;92002.94;;;-12.60
72405;BMP280;60395;52.020;113.548;2022-12-01T10:49:13;91996.44;;;-12.63
72405;BMP280;60395;52.020;113.548;2022-12-01T10:52:37;91996.72;;;-12.59
72405;BMP280;60395;52.020;113.548;2022-12-01T10:55:41;91995.78;;;-12.64
72405;BMP280;60395;52.020;113.548;2022-12-01T10:58:52;91989.41;;;-12.65
72405;BMP280;60395;52.020;113.548;2022-12-01T11:01:57;91996.19;;;-12.67
72405;BMP280;60395;52.020;113.548;2022-12-01T11:05:04;91999.25;;;-12.69
72405;BMP280;60395;52.020;113.548;2022-12-01T11:08:24;91991.13;;;-12.67
72405;BMP280;60395;52.020;113.548;2022-12-01T11:11:30;91992.44;;;-12.66
72405;BMP280;60395;52.020;113.548;2022-12-01T11:14:49;91992.44;;;-12.66
72405;BMP280;60395;52.020;113.548;2022-12-01T11:18:05;91986.88;;;-12.65
72405;BMP280;60395;52.020;113.548;2022-12-01T11:21:13;91976.22;;;-12.63
72405;BMP280;60395;52.020;113.548;2022-12-01T11:27:50;91975.53;;;-12.54
72405;BMP280;60395;52.020;113.548;2022-12-01T11:31:08;91963.53;;;-12.54
72405;BMP280;60395;52.020;113.548;2022-12-01T11:34:20;91964.22;;;-12.53
72405;BMP280;60395;52.020;113.548;2022-12-01T11:37:31;91959.41;;;-12.49
72405;BMP280;60395;52.020;113.548;2022-12-01T11:40:46;91950.72;;;-12.46
72405;BMP280;60395;52.020;113.548;2022-12-01T11:43:50;91950.06;;;-12.47
72405;BMP280;60395;52.020;113.548;2022-12-01T11:47:19;91942.09;;;-12.43
72405;BMP280;60395;52.020;113.548;2022-12-01T11:50:28;91948.34;;;-12.44
72405;BMP280;60395;52.020;113.548;2022-12-01T11:53:37;91943.28;;;-12.44
72405;BMP280;60395;52.020;113.548;2022-12-01T11:56:42;91943.94;;;-12.44
72405;BMP280;60395;52.020;113.548;2022-12-01T11:59:45;91937.03;;;-12.43
72405;BMP280;60395;52.020;113.548;2022-12-01T12:06:17;91931.16;;;-12.46
72405;BMP280;60395;52.020;113.548;2022-12-01T12:10:02;91931.31;;;-12.44
72405;BMP280;60395;52.020;113.548;2022-12-01T12:17:08;91921.72;;;-12.45
72405;BMP280;60395;52.020;113.548;2022-12-01T12:27:23;91905.56;;;-12.40
72405;BMP280;60395;52.020;113.548;2022-12-01T12:30:30;91911.31;;;-12.39
72405;BMP280;60395;52.020;113.548;2022-12-01T12:33:53;91900.28;;;-12.44
72405;BMP280;60395;52.020;113.548;2022-12-01T12:40:34;91902.00;;;-12.37
72405;BMP280;60395;52.020;113.548;2022-12-01T12:47:13;91892.63;;;-12.34
72405;BMP280;60395;52.020;113.548;2022-12-01T12:53:44;91886.75;;;-12.27
72405;BMP280;60395;52.020;113.548;2022-12-01T12:56:54;91888.63;;;-12.28
72405;BMP280;60395;52.020;113.548;2022-12-01T13:00:26;91879.41;;;-12.23
72405;BMP280;60395;52.020;113.548;2022-12-01T13:03:50;91884.59;;;-12.21
72405;BMP280;60395;52.020;113.548;2022-12-01T13:07:30;91888.31;;;-12.22
72405;BMP280;60395;52.020;113.548;2022-12-01T13:10:54;91893.50;;;-12.20
72405;BMP280;60395;52.020;113.548;2022-12-01T13:14:00;91894.81;;;-12.19
72405;BMP280;60395;52.020;113.548;2022-12-01T13:17:13;91884.19;;;-12.18
72405;BMP280;60395;52.020;113.548;2022-12-01T13:20:22;91882.81;;;-12.19
72405;BMP280;60395;52.020;113.548;2022-12-01T13:23:26;91873.16;;;-12.22
72405;BMP280;60395;52.020;113.548;2022-12-01T13:26:34;91869.41;;;-12.21
72405;BMP280;60395;52.020;113.548;2022-12-01T13:29:43;91863.56;;;-12.24
72405;BMP280;60395;52.020;113.548;2022-12-01T13:32:47;91864.66;;;-12.27
72405;BMP280;60395;52.020;113.548;2022-12-01T13:35:52;91867.97;;;-12.24
72405;BMP280;60395;52.020;113.548;2022-12-01T13:42:24;91854.53;;;-12.27
72405;BMP280;60395;52.020;113.548;2022-12-01T13:45:33;91849.75;;;-12.32
72405;BMP280;60395;52.020;113.548;2022-12-01T13:55:27;91843.47;;;-12.43
72405;BMP280;60395;52.020;113.548;2022-12-01T14:01:45;91834.53;;;-12.44
72405;BMP280;60395;52.020;113.548;2022-12-01T14:04:48;91828.81;;;-12.45
72405;BMP280;60395;52.020;113.548;2022-12-01T14:07:52;91823.94;;;-12.52
72405;BMP280;60395;52.020;113.548;2022-12-01T14:10:59;91823.56;;;-12.58
72405;BMP280;60395;52.020;113.548;2022-12-01T14:14:17;91825.31;;;-12.61
72405;BMP280;60395;52.020;113.548;2022-12-01T14:17:36;91821.63;;;-12.69
72405;BMP280;60395;52.020;113.548;2022-12-01T14:20:44;91817.22;;;-12.69
72405;BMP280;60395;52.020;113.548;2022-12-01T14:24:01;91819.38;;;-12.75
72405;BMP280;60395;52.020;113.548;2022-12-01T14:27:13;91807.31;;;-12.77
72405;BMP280;60395;52.020;113.548;2022-12-01T14:37:15;91798.84;;;-12.91
72405;BMP280;60395;52.020;113.548;2022-12-01T14:40:22;91799.94;;;-12.94
72405;BMP280;60395;52.020;113.548;2022-12-01T14:43:27;91804.88;;;-12.96
72405;BMP280;60395;52.020;113.548;2022-12-01T14:50:27;91804.31;;;-12.94
72405;BMP280;60395;52.020;113.548;2022-12-01T14:53:34;91805.44;;;-12.97
72405;BMP280;60395;52.020;113.548;2022-12-01T14:56:39;91800.91;;;-12.99
72405;BMP280;60395;52.020;113.548;2022-12-01T14:59:43;91803.19;;;-13.03
72405;BMP280;60395;52.020;113.548;2022-12-01T15:02:51;91804.50;;;-13.02
72405;BMP280;60395;52.020;113.548;2022-12-01T15:05:55;91800.91;;;-12.99
72405;BMP280;60395;52.020;113.548;2022-12-01T15:09:14;91810.34;;;-12.99
72405;BMP280;60395;52.020;113.548;2022-12-01T15:12:35;91788.94;;;-12.98
72405;BMP280;60395;52.020;113.548;2022-12-01T15:15:55;91794.75;;;-12.96
72405;BMP280;60395;52.020;113.548;2022-12-01T15:18:58;91796.75;;;-12.94
72405;BMP280;60395;52.020;113.548;2022-12-01T15:22:13;91793.56;;;-12.95
72405;BMP280;60395;52.020;113.548;2022-12-01T15:25:19;91799.03;;;-12.98
72405;BMP280;60395;52.020;113.548;2022-12-01T15:28:33;91795.03;;;-13.01
72405;BMP280;60395;52.020;113.548;2022-12-01T15:31:36;91790.28;;;-13.07
72405;BMP280;60395;52.020;113.548;2022-12-01T15:34:47;91793.50;;;-13.06
72405;BMP280;60395;52.020;113.548;2022-12-01T15:37:51;91785.91;;;-13.06
72405;BMP280;60395;52.020;113.548;2022-12-01T15:40:56;91782.47;;;-13.11
72405;BMP280;60395;52.020;113.548;2022-12-01T15:47:45;91781.66;;;-13.14
72405;BMP280;60395;52.020;113.548;2022-12-01T15:51:00;91786.47;;;-13.18
72405;BMP280;60395;52.020;113.548;2022-12-01T15:54:03;91784.50;;;-13.19
72405;BMP280;60395;52.020;113.548;2022-12-01T15:57:07;91779.31;;;-13.21
72405;BMP280;60395;52.020;113.548;2022-12-01T16:00:17;91775.19;;;-13.17
72405;BMP280;60395;52.020;113.548;2022-12-01T16:03:21;91775.59;;;-13.20
72405;BMP280;60395;52.020;113.548;2022-12-01T16:06:28;91782.50;;;-13.21
72405;BMP280;60395;52.020;113.548;2022-12-01T16:09:54;91778.00;;;-13.22
72405;BMP280;60395;52.020;113.548;2022-12-01T16:16:45;91785.44;;;-13.24
72405;BMP280;60395;52.020;113.548;2022-12-01T16:20:15;91776.91;;;-13.19
72405;BMP280;60395;52.020;113.548;2022-12-01T16:23:24;91798.31;;;-13.20
72405;BMP280;60395;52.020;113.548;2022-12-01T16:26:28;91789.53;;;-13.19
72405;BMP280;60395;52.020;113.548;2022-12-01T16:32:49;91781.81;;;-13.12
72405;BMP280;60395;52.020;113.548;2022-12-01T16:35:53;91785.13;;;-13.09
72405;BMP280;60395;52.020;113.548;2022-12-01T16:38:56;91784.34;;;-13.12
72405;BMP280;60395;52.020;113.548;2022-12-01T16:41:59;91779.13;;;-13.14
72405;BMP280;60395;52.020;113.548;2022-12-01T16:45:03;91783.53;;;-13.14
72405;BMP280;60395;52.020;113.548;2022-12-01T16:48:06;91784.09;;;-13.16
72405;BMP280;60395;52.020;113.548;2022-12-01T16:51:12;91779.97;;;-13.21
72405;BMP280;60395;52.020;113.548;2022-12-01T16:54:24;91788.22;;;-13.20
72405;BMP280;60395;52.020;113.548;2022-12-01T16:57:28;91788.38;;;-13.28
72405;BMP280;60395;52.020;113.548;2022-12-01T17:00:31;91778.56;;;-13.33
72405;BMP280;60395;52.020;113.548;2022-12-01T17:03:36;91781.91;;;-13.40
72405;BMP280;60395;52.020;113.548;2022-12-01T17:06:39;91784.84;;;-13.44
72405;BMP280;60395;52.020;113.548;2022-12-01T17:09:42;91783.97;;;-13.58
72405;BMP280;60395;52.020;113.548;2022-12-01T17:12:45;91788.22;;;-13.61
72405;BMP280;60395;52.020;113.548;2022-12-01T17:15:50;91794.72;;;-13.67
72405;BMP280;60395;52.020;113.548;2022-12-01T17:18:54;91789.28;;;-13.73
72405;BMP280;60395;52.020;113.548;2022-12-01T17:21:57;91792.09;;;-13.79
72405;BMP280;60395;52.020;113.548;2022-12-01T17:25:00;91784.94;;;-13.83
72405;BMP280;60395;52.020;113.548;2022-12-01T17:28:04;91784.13;;;-13.85
72405;BMP280;60395;52.020;113.548;2022-12-01T17:31:07;91785.44;;;-13.84
72405;BMP280;60395;52.020;113.548;2022-12-01T17:34:11;91792.66;;;-13.81
72405;BMP280;60395;52.020;113.548;2022-12-01T17:37:14;91790.75;;;-13.80
72405;BMP280;60395;52.020;113.548;2022-12-01T17:40:22;91793.03;;;-13.84
72405;BMP280;60395;52.020;113.548;2022-12-01T17:43:25;91788.22;;;-13.80
72405;BMP280;60395;52.020;113.548;2022-12-01T17:46:28;91783.84;;;-13.80
72405;BMP280;60395;52.020;113.548;2022-12-01T17:49:34;91777.09;;;-13.77
72405;BMP280;60395;52.020;113.548;2022-12-01T17:52:38;91777.09;;;-13.77
72405;BMP280;60395;52.020;113.548;2022-12-01T17:55:41;91770.56;;;-13.80
72405;BMP280;60395;52.020;113.548;2022-12-01T17:58:44;91773.66;;;-13.82
72405;BMP280;60395;52.020;113.548;2022-12-01T18:01:48;91769.66;;;-13.85
72405;BMP280;60395;52.020;113.548;2022-12-01T18:04:51;91761.69;;;-13.91
72405;BMP280;60395;52.020;113.548;2022-12-01T18:07:54;91758.78;;;-13.97
72405;BMP280;60395;52.020;113.548;2022-12-01T18:11:03;91759.88;;;-14.00
72405;BMP280;60395;52.020;113.548;2022-12-01T18:14:09;91767.84;;;-14.03
72405;BMP280;60395;52.020;113.548;2022-12-01T18:17:12;91761.88;;;-14.08
72405;BMP280;60395;52.020;113.548;2022-12-01T18:20:15;91771.81;;;-14.10
72405;BMP280;60395;52.020;113.548;2022-12-01T18:23:19;91774.75;;;-14.14
72405;BMP280;60395;52.020;113.548;2022-12-01T18:26:23;91771.28;;;-14.18
72405;BMP280;60395;52.020;113.548;2022-12-01T18:29:27;91765.31;;;-14.23
72405;BMP280;60395;52.020;113.548;2022-12-01T18:32:30;91779.66;;;-14.25
72405;BMP280;60395;52.020;113.548;2022-12-01T18:35:33;91776.19;;;-14.30
72405;BMP280;60395;52.020;113.548;2022-12-01T18:38:36;91780.03;;;-14.29
72405;BMP280;60395;52.020;113.548;2022-12-01T18:41:41;91781.38;;;-14.28
72405;BMP280;60395;52.020;113.548;2022-12-01T18:44:45;91770.25;;;-14.25
72405;BMP280;60395;52.020;113.548;2022-12-01T18:47:48;91771.81;;;-14.29
72405;BMP280;60395;52.020;113.548;2022-12-01T18:50:51;91779.63;;;-14.35
72405;BMP280;60395;52.020;113.548;2022-12-01T18:54:02;91782.72;;;-14.36
72405;BMP280;60395;52.020;113.548;2022-12-01T18:57:06;91781.63;;;-14.33